Time;durP1;ratioP1;P1;durP2;ratioP2;P2;SDS_P1;SDS_P2;PMS_P1;PMS_P2;Temp;Humidity;BMP_temperature;BMP_pressure;BME280_temperature;BME280_humidity;BME280_pressure;Samples;Min_cycle;Max_cycle;Signal;HPM_P1;HPM_P2
2023/03/29 00:01:08;;;;;;;0.30;0.30;;;;;;;10.36;100.00;99824.41;5027380;28;20091;-85
2023/03/29 00:03:35;;;;;;;0.30;0.30;;;;;;;10.30;100.00;99822.50;5028773;28;20494;-86
2023/03/29 00:06:01;;;;;;;0.35;0.35;;;;;;;10.23;100.00;99824.28;4995200;28;20030;-85
2023/03/29 00:08:30;;;;;;;0.63;0.63;;;;;;;10.11;100.00;99802.53;5011861;28;20116;-86
2023/03/29 00:10:57;;;;;;;0.38;0.38;;;;;;;10.21;100.00;99818.28;5027339;28;20045;-86
2023/03/29 00:13:25;;;;;;;1.70;0.65;;;;;;;10.21;100.00;99815.59;5029809;28;20068;-85
2023/03/29 00:15:52;;;;;;;2.08;0.43;;;;;;;10.28;100.00;99813.81;5029423;28;20097;-86
2023/03/29 00:18:18;;;;;;;0.30;0.30;;;;;;;10.34;100.00;99813.00;4994714;28;20041;-85
2023/03/29 00:20:43;;;;;;;0.40;0.40;;;;;;;10.43;100.00;99809.16;5042905;28;20052;-85
2023/03/29 00:23:09;;;;;;;0.60;0.55;;;;;;;10.49;100.00;99796.78;5041014;28;20026;-86
2023/03/29 00:25:35;;;;;;;1.20;1.10;;;;;;;10.56;100.00;99793.09;5042430;28;20025;-86
2023/03/29 00:28:01;;;;;;;0.50;0.50;;;;;;;10.62;100.00;99783.41;5028735;28;20039;-85
2023/03/29 00:30:27;;;;;;;3.70;1.08;;;;;;;10.66;100.00;99781.97;5043581;28;20113;-85
2023/03/29 00:32:53;;;;;;;1.60;0.75;;;;;;;10.64;100.00;99767.91;5028851;28;20503;-85
2023/03/29 00:35:19;;;;;;;1.08;0.70;;;;;;;10.67;100.00;99761.31;5042581;28;20528;-85
2023/03/29 00:37:49;;;;;;;1.05;0.98;;;;;;;10.66;100.00;99754.25;5045153;28;20034;-85
2023/03/29 00:40:15;;;;;;;0.90;0.65;;;;;;;10.56;100.00;99733.13;5044781;28;20041;-84
2023/03/29 00:42:43;;;;;;;2.40;1.08;;;;;;;10.66;100.00;99747.00;5043111;28;20029;-85
2023/03/29 00:45:24;;;;;;;4.78;1.98;;;;;;;10.64;100.00;99741.03;5044845;28;20026;-85
2023/03/29 00:48:17;;;;;;;2.97;1.08;;;;;;;10.59;100.00;99748.03;5027301;28;20126;-85
2023/03/29 00:50:51;;;;;;;2.28;0.90;;;;;;;10.54;100.00;99749.44;5043550;28;20038;-85
2023/03/29 00:53:20;;;;;;;11.60;2.35;;;;;;;10.52;100.00;99739.94;5028434;28;20120;-85
2023/03/29 00:55:54;;;;;;;4.38;1.20;;;;;;;10.47;100.00;99727.09;5028964;28;20041;-86
2023/03/29 00:58:30;;;;;;;;;;;;;;;10.52;100.00;99721.94;5012999;28;20063;-86
2023/03/29 01:01:03;;;;;;;4.53;1.63;;;;;;;10.49;100.00;99700.84;5060005;28;19920;-86
2023/03/29 01:03:33;;;;;;;5.80;2.00;;;;;;;10.56;100.00;99703.56;5011805;28;20044;-83
2023/03/29 01:06:03;;;;;;;7.55;1.60;;;;;;;10.51;100.00;99711.41;5012472;28;20037;-85
2023/03/29 01:08:33;;;;;;;9.13;2.13;;;;;;;10.56;100.00;99708.94;5011072;28;20103;-85
2023/03/29 01:11:06;;;;;;;12.98;2.22;;;;;;;10.53;100.00;99703.94;5012180;28;20472;-85
2023/03/29 01:13:50;;;;;;;3.70;0.98;;;;;;;10.55;100.00;99713.47;5027181;28;20049;-85
2023/03/29 01:16:18;;;;;;;10.07;2.20;;;;;;;10.60;100.00;99712.88;5026529;28;20038;-86
2023/03/29 01:18:45;;;;;;;9.07;1.90;;;;;;;10.68;100.00;99701.13;5026941;28;20098;-85
2023/03/29 01:21:19;;;;;;;11.38;2.97;;;;;;;10.72;100.00;99697.00;5044568;28;20549;-85
2023/03/29 01:23:51;;;;;;;7.30;2.45;;;;;;;10.72;100.00;99692.44;5014711;28;20025;-84
2023/03/29 01:26:45;;;;;;;13.38;2.08;;;;;;;10.64;100.00;99687.25;5029303;28;20084;-84
2023/03/29 01:29:16;;;;;;;6.32;1.27;;;;;;;10.62;100.00;99675.06;5048247;28;20387;-85
2023/03/29 01:31:50;;;;;;;18.55;3.53;;;;;;;10.44;100.00;99646.03;5046455;28;20358;-85
2023/03/29 01:34:24;;;;;;;7.05;2.00;;;;;;;10.37;100.00;99651.38;5015355;28;20030;-86
2023/03/29 01:36:59;;;;;;;9.10;2.42;;;;;;;10.51;100.00;99679.97;5031603;28;20041;-85
2023/03/29 01:39:25;;;;;;;16.30;2.50;;;;;;;10.55;100.00;99678.53;5015701;28;20550;-85
2023/03/29 01:41:51;;;;;;;2.25;1.15;;;;;;;10.60;100.00;99672.56;5031967;28;20061;-86
2023/03/29 01:44:48;;;;;;;15.10;3.75;;;;;;;10.65;100.00;99656.66;5047590;28;20029;-85
2023/03/29 01:47:28;;;;;;;0.98;0.75;;;;;;;10.79;100.00;99660.19;4999594;28;20055;-84
2023/03/29 01:50:08;;;;;;;12.60;2.78;;;;;;;10.68;100.00;99637.41;5015303;28;20038;-86
2023/03/29 01:52:38;;;;;;;13.57;2.80;;;;;;;10.77;100.00;99651.53;5046919;28;20068;-84
2023/03/29 01:55:11;;;;;;;9.38;2.45;;;;;;;10.68;100.00;99628.53;5015864;28;20492;-87
2023/03/29 01:57:37;;;;;;;20.55;2.40;;;;;;;10.68;100.00;99623.97;5029921;28;20060;-86
2023/03/29 02:00:08;;;;;;;10.27;2.10;;;;;;;10.62;100.00;99615.91;5030978;28;20392;-84
2023/03/29 02:02:37;;;;;;;10.70;2.25;;;;;;;10.45;100.00;99594.81;5047453;28;20030;-87
2023/03/29 02:05:03;;;;;;;7.65;2.20;;;;;;;10.68;100.00;99637.41;5031441;28;20052;-85
2023/03/29 02:07:31;;;;;;;6.40;2.08;;;;;;;10.66;100.00;99627.91;5015320;28;20041;-84
2023/03/29 02:09:57;;;;;;;6.65;1.95;;;;;;;10.74;100.00;99628.56;5044895;28;20037;-87
2023/03/29 02:12:22;;;;;;;1.10;0.88;;;;;;;10.77;100.00;99625.44;5028875;28;20029;-86
2023/03/29 02:14:48;;;;;;;5.80;1.70;;;;;;;10.71;100.00;99603.91;5047061;28;20071;-86
2023/03/29 02:17:18;;;;;;;12.43;2.28;;;;;;;10.75;100.00;99615.94;5046818;28;20033;-86
2023/03/29 02:19:52;;;;;;;8.93;2.08;;;;;;;10.79;100.00;99606.41;5047282;28;20041;-87
2023/03/29 02:22:22;;;;;;;5.10;1.30;;;;;;;10.78;100.00;99599.38;5011590;28;20036;-86
2023/03/29 02:24:50;;;;;;;6.97;1.48;;;;;;;10.80;100.00;99597.31;5045155;28;20483;-88
2023/03/29 02:27:15;;;;;;;10.77;1.85;;;;;;;10.85;100.00;99576.03;5010802;28;20044;-87
2023/03/29 02:29:41;;;;;;;6.28;1.77;;;;;;;10.88;100.00;99572.91;5023840;28;20026;-92
2023/03/29 02:32:20;;;;;;;11.70;2.08;;;;;;;10.98;100.00;99576.03;5009907;28;20034;-85
2023/03/29 02:34:51;;;;;;;11.13;2.00;;;;;;;10.91;100.00;99577.88;5011158;28;20046;-86
2023/03/29 02:37:18;;;;;;;15.57;2.33;;;;;;;10.96;100.00;99566.50;5043506;28;20072;-86
2023/03/29 02:39:46;;;;;;;8.95;2.40;;;;;;;11.00;100.00;99551.59;5041643;28;20053;-88
2023/03/29 02:42:13;;;;;;;13.90;2.35;;;;;;;10.97;100.00;99547.44;5023612;28;20026;-91
2023/03/29 02:44:42;;;;;;;18.48;2.88;;;;;;;11.04;100.00;99565.47;5004037;28;20132;-93
2023/03/29 02:47:15;;;;;;;20.23;2.38;;;;;;;10.97;100.00;99560.09;5002326;28;20030;-89
2023/03/29 02:49:41;;;;;;;4.82;1.38;;;;;;;10.99;100.00;99564.22;5019670;28;20033;-95
2023/03/29 02:52:11;;;;;;;10.02;2.38;;;;;;;11.06;100.00;99553.47;5036751;28;20059;-90
2023/03/29 02:54:42;;;;;;;18.08;2.22;;;;;;;11.04;100.00;99538.56;5002465;28;20033;-90
2023/03/29 02:57:09;;;;;;;6.65;1.50;;;;;;;10.94;100.00;99522.84;5020111;28;20123;-91
2023/03/29 02:59:35;;;;;;;11.45;1.70;;;;;;;11.02;100.00;99528.00;5035362;28;20128;-87
2023/03/29 03:02:00;;;;;;;4.15;1.35;;;;;;;10.96;100.00;99521.59;5035101;28;20037;-90
2023/03/29 03:04:27;;;;;;;7.55;2.17;;;;;;;10.91;100.00;99489.13;5035597;28;20107;-87
2023/03/29 03:06:52;;;;;;;3.60;1.27;;;;;;;11.05;100.00;99503.38;5035639;28;20467;-91
2023/03/29 03:09:18;;;;;;;10.93;1.75;;;;;;;11.14;100.00;99479.75;5018396;28;20116;-87
2023/03/29 03:11:44;;;;;;;5.38;1.67;;;;;;;11.09;100.00;99479.59;5036528;28;20036;-92
2023/03/29 03:14:11;;;;;;;6.65;1.25;;;;;;;11.06;100.00;99478.16;5035019;28;20029;-92
2023/03/29 03:16:37;;;;;;;2.90;0.93;;;;;;;10.99;100.00;99477.31;5018580;28;20031;-87
2023/03/29 03:19:03;;;;;;;6.05;1.40;;;;;;;11.02;100.00;99476.09;5035159;28;20037;-86
2023/03/29 03:21:29;;;;;;;4.05;1.42;;;;;;;11.02;100.00;99465.31;5018250;28;20083;-91
2023/03/29 03:23:54;;;;;;;6.45;1.42;;;;;;;10.90;100.00;99447.16;5035526;28;20030;-88
2023/03/29 03:26:21;;;;;;;7.00;1.52;;;;;;;10.84;100.00;99447.16;5036414;28;20032;-90
2023/03/29 03:28:47;;;;;;;8.27;1.45;;;;;;;10.87;100.00;99449.41;5018701;28;20041;-88
2023/03/29 03:31:13;;;;;;;6.22;1.40;;;;;;;10.88;100.00;99432.25;5036426;28;20029;-91
2023/03/29 03:33:39;;;;;;;6.80;1.50;;;;;;;10.88;100.00;99425.00;5035035;28;20041;-93
2023/03/29 03:36:07;;;;;;;5.95;1.65;;;;;;;10.92;100.00;99433.47;5018864;28;20033;-88
2023/03/29 03:38:33;;;;;;;2.30;1.42;;;;;;;10.87;100.00;99434.09;5001948;28;20148;-91
2023/03/29 03:41:01;;;;;;;5.45;3.28;;;;;;;10.88;100.00;99437.63;5017658;28;20128;-91
2023/03/29 03:43:27;;;;;;;4.35;1.88;;;;;;;10.84;100.00;99423.78;5002570;28;20029;-94
2023/03/29 03:45:54;;;;;;;3.97;1.30;;;;;;;10.98;100.00;99443.38;4985141;28;20037;-88
2023/03/29 03:48:22;;;;;;;4.03;1.20;;;;;;;10.95;100.00;99438.44;5034188;28;20030;-91
2023/03/29 03:50:53;;;;;;;4.03;1.20;;;;;;;10.93;100.00;99430.59;5018513;28;20037;-92
2023/03/29 03:53:19;;;;;;;11.60;1.52;;;;;;;10.89;100.00;99423.97;5001408;28;20118;-92
2023/03/29 03:55:48;;;;;;;6.60;1.63;;;;;;;10.84;100.00;99410.31;5034998;28;20029;-93
2023/03/29 03:58:15;;;;;;;3.88;1.45;;;;;;;10.83;100.00;99416.75;5036065;28;20493;-88
2023/03/29 04:00:41;;;;;;;3.10;0.80;;;;;;;10.90;100.00;99424.78;5002565;28;20132;-87
2023/03/29 04:03:07;;;;;;;2.80;1.08;;;;;;;10.99;100.00;99429.72;5036075;28;20030;-88
2023/03/29 04:05:32;;;;;;;7.60;2.03;;;;;;;11.00;100.00;99409.03;5034492;28;20033;-88
2023/03/29 04:07:59;;;;;;;6.22;1.85;;;;;;;10.93;100.00;99400.19;5034442;28;20033;-86
2023/03/29 04:10:24;;;;;;;2.25;1.23;;;;;;;10.92;100.00;99407.41;5018783;28;20487;-90
2023/03/29 04:12:50;;;;;;;9.90;1.45;;;;;;;10.90;100.00;99401.44;5034134;28;20033;-88
2023/03/29 04:15:19;;;;;;;4.57;1.00;;;;;;;10.90;100.00;99388.00;5034548;28;20049;-87
2023/03/29 04:17:45;;;;;;;5.57;1.17;;;;;;;10.84;100.00;99367.31;5035657;28;20469;-90
2023/03/29 04:20:11;;;;;;;2.50;1.00;;;;;;;10.82;100.00;99368.53;5034771;28;20030;-91
2023/03/29 04:22:38;;;;;;;4.38;1.27;;;;;;;10.90;100.00;99366.47;5034541;28;20377;-89
2023/03/29 04:25:05;;;;;;;4.20;1.45;;;;;;;10.87;100.00;99358.81;5001424;28;20037;-88
2023/03/29 04:27:31;;;;;;;2.55;1.20;;;;;;;11.00;100.00;99369.50;5001501;28;20037;-87
2023/03/29 04:29:57;;;;;;;1.02;0.82;;;;;;;11.04;100.00;99350.28;4986165;28;20045;-87
2023/03/29 04:32:23;;;;;;;2.53;1.13;;;;;;;11.07;100.00;99355.22;5034320;28;20071;-87
2023/03/29 04:34:49;;;;;;;5.28;1.10;;;;;;;11.10;100.00;99344.03;5034440;28;20372;-89
2023/03/29 04:37:15;;;;;;;4.35;1.00;;;;;;;11.05;100.00;99338.47;5034298;28;20032;-89
2023/03/29 04:39:41;;;;;;;2.17;1.10;;;;;;;11.02;100.00;99336.22;5034404;28;20040;-86
2023/03/29 04:42:07;;;;;;;1.55;0.90;;;;;;;10.88;100.00;99319.31;5035366;28;20353;-89
2023/03/29 04:44:33;;;;;;;5.78;0.90;;;;;;;10.75;100.00;99312.13;5022708;28;20026;-86
2023/03/29 04:47:00;;;;;;;5.97;1.23;;;;;;;10.70;100.00;99310.06;5044306;28;20033;-86
2023/03/29 04:49:25;;;;;;;5.93;1.30;;;;;;;10.79;100.00;99313.34;5004128;28;20385;-86
2023/03/29 04:51:52;;;;;;;2.28;1.20;;;;;;;10.88;100.00;99313.94;5034272;28;20029;-91
2023/03/29 04:54:18;;;;;;;1.88;0.90;;;;;;;10.81;100.00;99302.38;5035687;28;20029;-93
2023/03/29 04:56:43;;;;;;;2.50;0.95;;;;;;;10.83;100.00;99308.38;5037137;28;20026;-88
2023/03/29 04:59:09;;;;;;;3.97;1.10;;;;;;;10.78;100.00;99279.44;5037999;28;20111;-86
2023/03/29 05:01:35;;;;;;;6.18;1.30;;;;;;;10.83;100.00;99286.88;5039631;28;20021;-90
2023/03/29 05:04:02;;;;;;;2.53;0.80;;;;;;;10.78;100.00;99292.88;5021778;28;20037;-94
2023/03/29 05:06:28;;;;;;;2.13;0.80;;;;;;;10.78;100.00;99284.81;5038575;28;20372;-87
2023/03/29 05:08:54;;;;;;;2.03;1.00;;;;;;;10.71;100.00;99271.38;5022344;28;20040;-86
2023/03/29 05:11:20;;;;;;;1.98;0.70;;;;;;;10.87;100.00;99286.19;5038091;28;20120;-87
2023/03/29 05:13:46;;;;;;;2.15;1.00;;;;;;;10.93;100.00;99285.38;5038046;28;20037;-89
2023/03/29 05:16:11;;;;;;;3.17;0.82;;;;;;;10.92;100.00;99266.75;5038077;28;20030;-87
2023/03/29 05:18:37;;;;;;;1.25;0.75;;;;;;;10.89;100.00;99246.47;5038547;28;20064;-90
2023/03/29 05:21:03;;;;;;;1.90;0.98;;;;;;;10.88;100.00;99260.97;5038516;28;20026;-89
2023/03/29 05:23:29;;;;;;;4.15;1.15;;;;;;;10.82;100.00;99258.31;5038884;28;20036;-88
2023/03/29 05:25:55;;;;;;;6.78;1.33;;;;;;;10.82;100.00;99250.25;5022316;28;20041;-90
2023/03/29 05:28:21;;;;;;;4.32;1.40;;;;;;;10.83;100.00;99247.34;5006567;28;20041;-90
2023/03/29 05:30:47;;;;;;;4.28;1.00;;;;;;;10.83;100.00;99250.03;5038785;28;20064;-91
2023/03/29 05:33:13;;;;;;;3.42;1.20;;;;;;;10.88;100.00;99255.59;5038289;28;20029;-87
2023/03/29 05:35:38;;;;;;;3.03;0.80;;;;;;;10.84;100.00;99235.53;5023499;28;20052;-86
2023/03/29 05:38:05;;;;;;;2.47;1.20;;;;;;;10.93;100.00;99236.16;5041273;28;20052;-85
2023/03/29 05:40:31;;;;;;;2.03;0.90;;;;;;;10.94;100.00;99237.78;5045270;28;20048;-87
2023/03/29 05:42:58;;;;;;;3.13;1.08;;;;;;;10.93;100.00;99234.28;5028960;28;20033;-86
2023/03/29 05:45:24;;;;;;;2.47;0.90;;;;;;;10.90;100.00;99232.03;5044040;28;20041;-86
2023/03/29 05:47:49;;;;;;;1.73;0.90;;;;;;;10.86;100.00;99209.28;5022683;28;20048;-92
2023/03/29 05:50:15;;;;;;;2.05;0.77;;;;;;;10.97;100.00;99222.03;5005605;28;20104;-86
2023/03/29 05:52:41;;;;;;;5.38;0.75;;;;;;;11.00;100.00;99199.25;5039511;28;20043;-91
2023/03/29 05:55:08;;;;;;;6.20;1.77;;;;;;;11.00;100.00;99199.25;5038117;28;20030;-85
2023/03/29 05:57:37;;;;;;;6.07;2.35;;;;;;;10.97;100.00;99197.00;5005920;28;20029;-88
2023/03/29 06:00:14;;;;;;;5.15;2.00;;;;;;;10.87;100.00;99184.03;5039844;28;20033;-88
2023/03/29 06:02:40;;;;;;;6.43;3.17;;;;;;;10.90;100.00;99194.38;5009062;28;20033;-87
2023/03/29 06:05:07;;;;;;;5.63;2.35;;;;;;;10.93;100.00;99185.88;5022271;28;20029;-88
2023/03/29 06:07:33;;;;;;;3.95;2.00;;;;;;;10.94;100.00;99178.63;5039381;28;20033;-91
2023/03/29 06:09:59;;;;;;;3.90;1.60;;;;;;;10.90;100.00;99172.84;5024028;28;20029;-86
2023/03/29 06:12:25;;;;;;;5.10;1.77;;;;;;;10.95;100.00;99183.75;5041186;28;20033;-88
2023/03/29 06:14:50;;;;;;;3.42;1.70;;;;;;;10.96;100.00;99176.53;5040799;28;20029;-85
2023/03/29 06:17:16;;;;;;;6.65;1.88;;;;;;;10.87;100.00;99164.38;5041264;28;20097;-91
2023/03/29 06:19:43;;;;;;;4.13;1.10;;;;;;;10.90;100.00;99155.88;5039296;28;20029;-86
2023/03/29 06:22:09;;;;;;;2.88;1.20;;;;;;;10.90;100.00;99155.88;5007663;28;20036;-92
2023/03/29 06:24:35;;;;;;;2.00;1.05;;;;;;;10.93;100.00;99156.28;5036801;28;20029;-89
2023/03/29 06:27:00;;;;;;;3.30;0.80;;;;;;;10.75;100.00;99121.25;5038750;28;20041;-87
2023/03/29 06:29:26;;;;;;;2.33;0.80;;;;;;;10.97;100.00;99102.88;5037535;28;20508;-89
2023/03/29 06:31:53;;;;;;;2.17;0.88;;;;;;;10.94;100.00;99124.84;5020587;28;20036;-86
2023/03/29 06:34:20;;;;;;;1.08;0.60;;;;;;;11.04;100.00;99129.75;5036670;28;20109;-88
2023/03/29 06:36:46;;;;;;;1.85;0.82;;;;;;;11.00;100.00;99108.63;5036881;28;20038;-87
2023/03/29 06:39:12;;;;;;;2.10;1.05;;;;;;;10.96;100.00;99107.44;5036636;28;20068;-88
2023/03/29 06:41:38;;;;;;;2.70;0.88;;;;;;;11.00;100.00;99127.47;5019928;28;20033;-92
2023/03/29 06:44:04;;;;;;;1.58;0.63;;;;;;;10.94;100.00;99114.91;5037972;28;20033;-86
2023/03/29 06:46:30;;;;;;;1.23;0.90;;;;;;;10.95;100.00;99119.22;5021060;28;20025;-91
2023/03/29 06:48:56;;;;;;;1.63;0.63;;;;;;;11.02;100.00;99118.38;5037578;28;20120;-86
2023/03/29 06:51:21;;;;;;;5.72;0.70;;;;;;;10.97;100.00;99102.88;5037278;28;20099;-88
2023/03/29 06:53:47;;;;;;;1.05;0.65;;;;;;;11.03;100.00;99102.00;5037697;28;20101;-89
2023/03/29 06:56:13;;;;;;;1.58;0.80;;;;;;;11.01;100.00;99096.03;5021292;28;20391;-93
2023/03/29 06:58:39;;;;;;;1.02;0.63;;;;;;;10.94;100.00;99089.88;5029693;28;20033;-84
2023/03/29 07:01:05;;;;;;;2.55;0.93;;;;;;;10.92;100.00;99091.94;5045082;28;20112;-88
2023/03/29 07:03:33;;;;;;;2.08;0.73;;;;;;;10.93;100.00;99081.00;5019290;28;20472;-87
2023/03/29 07:06:08;;;;;;;6.25;0.80;;;;;;;11.03;100.00;99087.72;5036627;28;20040;-87
2023/03/29 07:08:41;;;;;;;2.92;0.93;;;;;;;11.08;100.00;99083.31;5036146;28;20037;-87
2023/03/29 07:11:07;;;;;;;;;;;;;;;11.09;100.00;99078.81;5004844;28;20388;-88
2023/03/29 07:13:33;;;;;;;2.55;0.95;;;;;;;11.05;100.00;99051.50;5019813;28;19908;-94
2023/03/29 07:15:59;;;;;;;1.67;0.80;;;;;;;11.05;100.00;99048.00;5037270;28;20025;-89
2023/03/29 07:18:25;;;;;;;6.57;1.00;;;;;;;10.85;100.00;99013.19;5037161;28;20376;-90
2023/03/29 07:20:51;;;;;;;1.73;0.90;;;;;;;10.90;100.00;99035.72;5034733;28;20033;-87
2023/03/29 07:23:17;;;;;;;3.53;0.93;;;;;;;10.76;100.00;99018.84;5034799;28;20029;-92
2023/03/29 07:25:43;;;;;;;1.75;0.70;;;;;;;10.71;100.00;99023.25;5034074;28;20060;-87
2023/03/29 07:28:11;;;;;;;1.25;0.70;;;;;;;10.60;100.00;99003.28;5034845;28;20041;-89
2023/03/29 07:30:37;;;;;;;1.98;0.80;;;;;;;10.60;100.00;99002.47;5016977;28;20037;-86
2023/03/29 07:33:03;;;;;;;0.82;0.52;;;;;;;10.64;100.00;98990.22;5017531;28;20423;-91
2023/03/29 07:35:29;;;;;;;1.80;0.98;;;;;;;10.59;100.00;98996.28;5033709;28;20095;-91
2023/03/29 07:37:56;;;;;;;2.13;0.68;;;;;;;10.59;100.00;98992.75;5034237;28;20486;-88
2023/03/29 07:40:24;;;;;;;1.92;1.05;;;;;;;10.59;100.00;98990.06;5033952;28;20086;-88
2023/03/29 07:42:55;;;;;;;4.13;1.30;;;;;;;10.60;100.00;98973.72;5032968;28;20030;-87
2023/03/29 07:45:23;;;;;;;4.53;1.88;;;;;;;10.60;100.00;98984.47;5001015;28;20460;-89
2023/03/29 07:47:53;;;;;;;23.73;8.20;;;;;;;10.62;100.00;98960.06;5016076;28;20044;-85
2023/03/29 07:50:19;;;;;;;6.97;1.83;;;;;;;10.53;100.00;98962.19;5032807;28;20064;-89
2023/03/29 07:52:44;;;;;;;3.88;1.10;;;;;;;10.52;100.00;98961.38;5032609;28;20030;-90
2023/03/29 07:55:12;;;;;;;0.50;0.50;;;;;;;10.50;100.00;98954.56;5032646;28;20033;-89
2023/03/29 07:57:39;;;;;;;2.28;0.98;;;;;;;10.51;100.00;98946.31;5016089;28;20033;-89
2023/03/29 08:00:14;;;;;;;1.35;0.80;;;;;;;10.71;100.00;98937.22;5016421;28;20063;-89
2023/03/29 08:02:44;;;;;;;0.88;0.70;;;;;;;10.83;100.00;98948.09;5017600;28;20044;-90
2023/03/29 08:05:14;;;;;;;1.00;0.75;;;;;;;10.81;100.00;98932.16;4984323;28;20491;-89
2023/03/29 08:07:43;;;;;;;1.25;1.00;;;;;;;10.76;100.00;98942.75;4984657;28;20067;-87
2023/03/29 08:10:12;;;;;;;1.70;0.90;;;;;;;10.74;100.00;98936.78;5016110;28;20176;-89
2023/03/29 08:12:39;;;;;;;0.75;0.70;;;;;;;10.76;100.00;98945.44;5015984;28;20049;-88
2023/03/29 08:15:12;;;;;;;2.25;1.52;;;;;;;10.81;100.00;98931.34;5016715;28;20518;-86
2023/03/29 08:17:39;;;;;;;0.95;0.80;;;;;;;10.84;100.00;98920.16;5032981;28;20109;-86
2023/03/29 08:20:08;;;;;;;2.28;1.17;;;;;;;10.94;100.00;98944.66;4999859;28;20041;-86
2023/03/29 08:22:34;;;;;;;2.25;0.73;;;;;;;10.96;100.00;98938.03;5032565;28;20037;-88
2023/03/29 08:25:01;;;;;;;4.68;1.90;;;;;;;10.82;100.00;98909.59;4999782;28;20041;-87
2023/03/29 08:27:27;;;;;;;2.45;1.02;;;;;;;10.91;100.00;98918.22;5034297;28;20117;-85
2023/03/29 08:29:53;;;;;;;2.17;1.20;;;;;;;11.01;100.00;98907.78;5038648;28;20041;-87
2023/03/29 08:32:19;;;;;;;2.80;1.88;;;;;;;11.02;100.00;98905.91;5017999;28;20033;-88
2023/03/29 08:34:45;;;;;;;1.98;0.90;;;;;;;11.12;100.00;98919.66;5036043;28;20415;-88
2023/03/29 08:37:12;;;;;;;2.17;1.17;;;;;;;11.17;100.00;98925.19;5035753;28;20056;-88
2023/03/29 08:39:38;;;;;;;1.58;1.00;;;;;;;11.20;100.00;98917.47;5003461;28;20079;-84
2023/03/29 08:42:06;;;;;;;2.40;1.42;;;;;;;11.29;100.00;98931.44;5036717;28;20034;-80
2023/03/29 08:44:53;;;;;;;1.70;0.90;;;;;;;11.32;100.00;98939.06;5053046;28;20041;-80
2023/03/29 08:47:34;;;;;;;1.00;0.80;;;;;;;11.39;100.00;98933.59;5037341;28;20087;-80
2023/03/29 08:50:00;;;;;;;0.77;0.63;;;;;;;11.41;100.00;98924.25;5019358;28;20479;-80
2023/03/29 08:52:30;;;;;;;0.60;0.60;;;;;;;11.51;100.00;98899.50;5035861;28;20034;-80
2023/03/29 08:54:58;;;;;;;1.10;1.00;;;;;;;11.64;100.00;98887.72;5019320;28;20037;-85
2023/03/29 08:57:35;;;;;;;0.50;0.50;;;;;;;11.86;100.00;98899.66;5019516;28;20069;-80
2023/03/29 09:00:04;;;;;;;0.65;0.65;;;;;;;11.88;100.00;98870.63;5019494;28;20021;-80
2023/03/29 09:02:33;;;;;;;1.70;0.90;;;;;;;12.17;100.00;98895.06;5035578;28;20033;-80
2023/03/29 09:05:08;;;;;;;0.60;0.60;;;;;;;12.18;100.00;98888.63;5035669;28;20037;-81
2023/03/29 09:07:33;;;;;;;1.30;1.00;;;;;;;12.20;100.00;98894.59;5019532;28;20045;-80
2023/03/29 09:09:59;;;;;;;0.63;0.63;;;;;;;12.42;100.00;98899.41;5036853;28;20035;-80
2023/03/29 09:12:48;;;;;;;0.93;0.70;;;;;;;12.62;100.00;98902.59;5019135;28;20028;-81
2023/03/29 09:15:18;;;;;;;0.60;0.60;;;;;;;12.89;100.00;98911.03;5018429;28;20083;-83
2023/03/29 09:18:13;;;;;;;1.17;0.63;;;;;;;13.15;100.00;98909.69;5018533;28;20552;-78
2023/03/29 09:20:54;;;;;;;0.50;0.50;;;;;;;13.51;100.00;98888.84;5017042;28;20048;-78
2023/03/29 09:23:31;;;;;;;2.22;0.85;;;;;;;13.96;100.00;98895.34;5035186;28;20032;-78
2023/03/29 09:26:19;;;;;;;1.35;1.05;;;;;;;14.21;100.00;98878.72;5002214;28;20038;-78
2023/03/29 09:29:30;;;;;;;0.60;0.60;;;;;;;14.30;100.00;98879.97;5002735;28;20037;-79
2023/03/29 09:31:57;;;;;;;1.23;0.70;;;;;;;14.29;100.00;98856.72;5019037;28;20044;-78
2023/03/29 09:34:29;;;;;;;0.90;0.68;;;;;;;14.28;100.00;98857.75;5018397;28;20069;-77
2023/03/29 09:37:20;;;;;;;3.40;0.88;;;;;;;14.46;100.00;98884.53;5002412;28;20045;-85
2023/03/29 09:39:46;;;;;;;1.20;0.95;;;;;;;14.54;100.00;98877.13;5018755;28;20124;-78
2023/03/29 09:42:13;;;;;;;1.42;0.80;;;;;;;14.59;100.00;98874.47;5018165;28;20523;-77
2023/03/29 09:45:00;;;;;;;0.50;0.50;;;;;;;14.61;100.00;98873.16;5017778;28;20110;-78
2023/03/29 09:47:31;;;;;;;0.57;0.50;;;;;;;14.56;100.00;98869.56;5018913;28;20045;-77
2023/03/29 09:50:04;;;;;;;0.68;0.60;;;;;;;14.53;100.00;98870.88;5034604;28;20391;-78
2023/03/29 09:52:30;;;;;;;5.07;1.30;;;;;;;14.40;100.00;98866.59;4986428;28;20132;-77
2023/03/29 09:54:56;;;;;;;2.05;1.00;;;;;;;14.23;100.00;98879.28;5001567;28;20472;-77
2023/03/29 09:57:22;;;;;;;2.25;0.75;;;;;;;14.08;100.00;98861.78;5001591;28;20041;-76
2023/03/29 09:59:50;;;;;;;4.38;0.82;;;;;;;13.95;100.00;98877.50;5018255;28;20037;-76
2023/03/29 10:02:19;;;;;;;1.30;0.70;;;;;;;13.92;100.00;98881.50;5018311;28;20068;-77
2023/03/29 10:04:54;;;;;;;4.20;1.10;;;;;;;14.19;100.00;98878.16;5034930;28;20120;-81
2023/03/29 10:07:19;;;;;;;2.13;1.20;;;;;;;14.35;100.00;98882.75;5018428;28;20037;-79
2023/03/29 10:09:46;;;;;;;2.35;1.17;;;;;;;14.16;100.00;98881.38;5017751;28;20025;-80
2023/03/29 10:12:12;;;;;;;0.73;0.68;;;;;;;13.77;100.00;98886.63;5034239;28;20041;-82
2023/03/29 10:14:48;;;;;;;1.70;0.93;;;;;;;13.53;100.00;98884.03;5034139;28;20026;-76
2023/03/29 10:17:27;;;;;;;2.70;1.80;;;;;;;13.43;100.00;98888.41;5001373;28;20403;-77
2023/03/29 10:19:58;;;;;;;1.95;0.73;;;;;;;13.13;100.00;98881.31;5001800;28;20063;-83
2023/03/29 10:22:27;;;;;;;3.42;1.17;;;;;;;12.90;100.00;98907.25;5017833;28;20459;-84
2023/03/29 10:24:54;;;;;;;0.50;0.50;;;;;;;13.39;100.00;98898.88;5034235;28;20427;-78
2023/03/29 10:27:30;;;;;;;1.30;0.98;;;;;;;14.14;100.00;98888.88;5035325;28;20032;-78
2023/03/29 10:29:59;;;;;;;1.50;0.98;;;;;;;14.60;100.00;98895.84;5001415;28;20096;-78
2023/03/29 10:32:32;;;;;;;0.55;0.50;;;;;;;14.91;100.00;98893.59;5034156;28;20120;-80
2023/03/29 10:35:27;;;;;;;0.73;0.73;;;;;;;15.36;100.00;98898.78;5017814;28;20060;-78
2023/03/29 10:37:56;;;;;;;0.40;0.40;;;;;;;15.46;100.00;98889.97;5029895;28;20038;-79
2023/03/29 10:40:26;;;;;;;0.50;0.50;;;;;;;15.46;100.00;98894.56;5033927;28;20088;-87
2023/03/29 10:42:56;;;;;;;1.35;1.13;;;;;;;15.73;100.00;98890.00;5017289;28;20483;-79
2023/03/29 10:45:33;;;;;;;0.60;0.60;;;;;;;16.15;100.00;98885.81;5018195;28;20044;-81
2023/03/29 10:48:00;;;;;;;0.60;0.60;;;;;;;16.34;100.00;98886.22;5001120;28;20038;-78
2023/03/29 10:50:35;;;;;;;0.50;0.50;;;;;;;16.69;100.00;98867.47;5017115;28;20140;-86
2023/03/29 10:53:02;;;;;;;0.60;0.60;;;;;;;16.95;100.00;98867.66;5033710;28;20128;-82
2023/03/29 10:55:34;;;;;;;0.50;0.50;;;;;;;17.18;100.00;98871.84;5017194;28;20146;-77
2023/03/29 10:58:06;;;;;;;0.60;0.60;;;;;;;17.46;100.00;98873.28;5033159;28;20460;-78
2023/03/29 11:01:07;;;;;;;0.50;0.50;;;;;;;17.65;100.00;98854.63;5016995;28;20049;-79
2023/03/29 11:03:40;;;;;;;0.50;0.50;;;;;;;17.36;100.00;98857.78;4995150;28;20439;-78
2023/03/29 11:06:16;;;;;;;0.60;0.60;;;;;;;17.00;100.00;98883.97;5016998;28;20037;-78
2023/03/29 11:09:05;;;;;;;0.85;0.60;;;;;;;16.61;100.00;98856.31;5033049;28;20625;-78
2023/03/29 11:12:02;;;;;;;1.50;1.20;;;;;;;18.12;97.28;98853.59;5018042;28;20036;-81
2023/03/29 11:15:07;;;;;;;0.90;0.55;;;;;;;18.35;92.41;98852.22;5016613;28;20041;-84
2023/03/29 11:17:51;;;;;;;1.77;1.08;;;;;;;17.85;95.94;98866.63;5033156;28;20547;-78
2023/03/29 11:20:27;;;;;;;3.72;1.00;;;;;;;18.70;88.43;98868.78;5033353;28;20502;-77
2023/03/29 11:22:56;;;;;;;3.22;1.50;;;;;;;18.31;90.17;98856.59;5015932;28;20060;-78
2023/03/29 11:25:27;;;;;;;5.72;2.47;;;;;;;17.84;92.88;98873.97;5016628;28;20052;-78
2023/03/29 11:27:59;;;;;;;5.07;2.15;;;;;;;17.52;94.30;98861.38;5000259;28;20464;-84
2023/03/29 11:30:35;;;;;;;13.57;1.83;;;;;;;17.22;95.12;98872.94;5016236;28;20029;-81
2023/03/29 11:33:16;;;;;;;12.35;2.53;;;;;;;16.73;98.21;98877.84;5016598;28;20033;-83
2023/03/29 11:36:03;;;;;;;10.90;2.30;;;;;;;16.09;100.00;98863.25;5016304;28;20030;-80